首页
METAR-TAF:

METAR-TAF

机场 :

阿爾及爾, 阿尔及利亚

阿尔及尔胡阿里·布迈丁机场

纬度: 36-43N, 经度: 003-15E, 海拔: 25米

当前天气观测

该预报发布于29分钟前的14:00 UTC
风速6节,风向
温度 21°C
湿度 49%
气压 1025 hPa
能见度10公里或以上
1500米以下无云,无积雨云

METAR: DAAG 221400Z 01006KT CAVOK 21/10 Q1025

时间: 15:29 (14:29 UTC)

预报

该预报发布于3小时和29分钟前的11:00 UTC
预报有效从22日的 12点(UTC)到 23日的 12点(UTC)
风速6节,风向西南
能见度10公里或以上
1500米以下无云,无积雨云
短暂存在
从 22日的 12点(UTC)到 22日的 18点(UTC)
风速10节,风向西转西北

TAF: DAAG 221100Z 2212/2312 22006KT CAVOK TEMPO 2212/2218 30010KT

超过4000个机场的气象观测和天气预报(METAR&TAF报告)。

可查询的气象台以黄色和红色小点在地图上表示。

将鼠标移到小点上方,可查看气象台名称。

然后点击查看天气观测和预报。

如需切换地图:点击带黑十字的绿色按钮放大地图;点击带横线的绿色按钮缩小地图;或者点击绿色箭头查看邻近地区的地图。


METAR-TAF: